Time;durP1;ratioP1;P1;durP2;ratioP2;P2;SDS_P1;SDS_P2;PMS_P1;PMS_P2;Temp;Humidity;BMP_temperature;BMP_pressure;BME280_temperature;BME280_humidity;BME280_pressure;Samples;Min_cycle;Max_cycle;Signal;HPM_P1;HPM_P2
2022/11/05 00:10:51;;;;;;;6.87;2.67;;;;;;;15.46;100.00;101314.03;4989814;28;20268;-48
2022/11/05 00:19:05;;;;;;;13.17;4.10;;;;;;;14.82;100.00;101331.94;4987663;28;20280;-49
2022/11/05 00:27:03;;;;;;;20.50;2.63;;;;;;;15.05;100.00;101343.06;4991111;28;20271;-50
2022/11/05 00:29:29;;;;;;;10.98;3.72;;;;;;;15.11;100.00;101343.25;4987395;28;20261;-51
2022/11/05 00:31:56;;;;;;;;;;;;;;;14.69;100.00;101338.97;4990137;28;20038;-53
2022/11/05 00:34:21;;;;;;;12.23;4.80;;;;;;;14.53;100.00;101344.78;4991307;28;19914;-51
2022/11/05 00:36:46;;;;;;;11.17;4.63;;;;;;;14.39;100.00;101341.28;4989759;28;20048;-51
2022/11/05 00:39:12;;;;;;;12.23;4.43;;;;;;;14.70;100.00;101353.28;4987141;28;20114;-51
2022/11/05 00:41:40;;;;;;;7.77;3.50;;;;;;;14.74;100.00;101349.97;4986819;28;20349;-53
2022/11/05 00:49:28;;;;;;;9.48;3.05;;;;;;;14.51;100.00;101358.47;4988363;28;20098;-51
2022/11/05 00:49:35;;;;;;;7.28;3.45;;;;;;;14.48;100.00;101357.03;4986854;28;20049;-52
2022/11/05 00:54:49;;;;;;;9.27;3.28;;;;;;;14.32;100.00;101362.84;4976875;28;20043;-51
2022/11/05 00:57:14;;;;;;;13.40;3.27;;;;;;;14.42;100.00;101368.63;4991317;28;20031;-50
2022/11/05 00:59:40;;;;;;;11.52;3.55;;;;;;;14.33;100.00;101370.69;4992287;28;20026;-51
2022/11/05 01:02:05;;;;;;;5.93;2.50;;;;;;;14.15;100.00;101376.72;4988555;28;20054;-52
2022/11/05 01:04:31;;;;;;;7.87;3.40;;;;;;;14.28;100.00;101370.50;4989220;28;20276;-53
2022/11/05 01:06:56;;;;;;;12.02;2.85;;;;;;;14.06;100.00;101380.63;4990017;28;20038;-53
2022/11/05 01:09:22;;;;;;;6.40;2.80;;;;;;;14.07;100.00;101385.00;4989421;28;20070;-52
2022/11/05 01:11:48;;;;;;;8.45;2.63;;;;;;;14.33;100.00;101384.16;4992294;28;20035;-54
2022/11/05 01:14:14;;;;;;;9.68;3.33;;;;;;;14.04;100.00;101386.22;4990468;28;20055;-53
2022/11/05 01:16:40;;;;;;;8.07;3.50;;;;;;;14.27;100.00;101381.47;4989905;28;20068;-49
2022/11/05 01:19:08;;;;;;;8.18;3.25;;;;;;;14.03;100.00;101383.72;4991872;28;20102;-51
2022/11/05 01:21:34;;;;;;;7.68;3.00;;;;;;;14.08;100.00;101392.03;4988575;28;20060;-48
2022/11/05 01:24:01;;;;;;;9.65;3.33;;;;;;;14.24;100.00;101389.94;4989694;28;20035;-52
2022/11/05 01:26:26;;;;;;;8.75;3.25;;;;;;;14.32;100.00;101395.13;4989739;28;20070;-50
2022/11/05 01:28:59;;;;;;;7.80;2.90;;;;;;;14.22;100.00;101394.69;4991885;28;20034;-50
2022/11/05 01:31:25;;;;;;;6.43;3.53;;;;;;;13.70;100.00;101389.88;4989044;28;20039;-51
2022/11/05 01:33:51;;;;;;;12.88;3.85;;;;;;;13.40;100.00;101388.28;4988861;28;20053;-51
2022/11/05 01:36:17;;;;;;;11.63;4.05;;;;;;;13.79;100.00;101396.69;4985942;28;20035;-49
2022/11/05 01:38:43;;;;;;;12.77;4.28;;;;;;;13.91;100.00;101395.09;4983003;28;20106;-51
2022/11/05 01:41:09;;;;;;;12.20;4.20;;;;;;;13.80;100.00;101400.22;4992053;28;20045;-53
2022/11/05 01:43:46;;;;;;;9.47;4.40;;;;;;;13.60;100.00;101403.69;4988067;28;20100;-50
2022/11/05 01:46:14;;;;;;;13.25;4.80;;;;;;;13.91;100.00;101402.31;4989652;28;20062;-52
2022/11/05 01:48:39;;;;;;;;;;;;;;;14.05;100.00;101412.06;4989133;28;20039;-51
2022/11/05 01:51:12;;;;;;;20.57;6.07;;;;;;;13.62;100.00;101409.69;4987962;28;19918;-49
2022/11/05 01:53:43;;;;;;;6.65;3.95;;;;;;;13.65;100.00;101405.78;4987226;28;20090;-49
2022/11/05 01:56:13;;;;;;;9.20;5.10;;;;;;;13.86;100.00;101400.25;4988799;28;20042;-52
2022/11/05 01:59:02;;;;;;;14.25;5.03;;;;;;;13.96;100.00;101404.41;4989410;28;20039;-47
2022/11/05 02:01:28;;;;;;;13.82;4.78;;;;;;;13.99;100.00;101399.44;4987938;28;20031;-51
2022/11/05 02:03:58;;;;;;;11.55;5.00;;;;;;;13.56;100.00;101397.88;4989852;28;20038;-49
2022/11/05 02:06:27;;;;;;;14.00;5.75;;;;;;;12.80;100.00;101388.00;4987241;28;20023;-50
2022/11/05 02:09:11;;;;;;;11.32;5.32;;;;;;;13.24;100.00;101391.31;4989318;28;20063;-52
2022/11/05 02:11:37;;;;;;;12.85;5.45;;;;;;;13.54;100.00;101391.88;4989559;28;20073;-53
2022/11/05 02:14:03;;;;;;;15.97;5.63;;;;;;;13.79;100.00;101385.13;4991580;28;20098;-53
2022/11/05 02:16:45;;;;;;;15.18;6.03;;;;;;;13.38;100.00;101381.44;4989622;28;20042;-55
2022/11/05 02:19:36;;;;;;;9.13;5.18;;;;;;;13.29;100.00;101387.00;4987098;28;20043;-53
2022/11/05 02:22:16;;;;;;;13.57;6.15;;;;;;;13.16;100.00;101389.66;4991254;28;20030;-49
2022/11/05 02:25:16;;;;;;;11.82;6.78;;;;;;;13.21;100.00;101379.13;4989534;28;20066;-51
2022/11/05 02:27:57;;;;;;;11.23;5.88;;;;;;;13.34;100.00;101387.22;4988965;28;20030;-49
2022/11/05 02:30:44;;;;;;;13.40;6.50;;;;;;;12.95;100.00;101386.03;4990527;28;20042;-52
2022/11/05 02:33:33;;;;;;;14.23;6.25;;;;;;;12.94;100.00;101387.06;4990910;28;20034;-53
2022/11/05 02:36:06;;;;;;;11.65;6.32;;;;;;;12.80;100.00;101380.78;4993754;28;20098;-48
2022/11/05 02:38:47;;;;;;;14.98;7.15;;;;;;;13.04;100.00;101386.69;4990705;28;20042;-47
2022/11/05 02:41:24;;;;;;;14.85;6.28;;;;;;;12.82;100.00;101383.25;4991860;28;20033;-51
2022/11/05 02:44:01;;;;;;;16.52;6.47;;;;;;;12.76;100.00;101385.69;4990518;28;20046;-51
2022/11/05 02:46:50;;;;;;;;;;;;;;;12.56;100.00;101382.03;4993003;28;20064;-51
2022/11/05 02:49:35;;;;;;;12.95;6.75;;;;;;;12.63;100.00;101380.22;4982058;28;19953;-53
2022/11/05 02:52:18;;;;;;;17.25;7.57;;;;;;;12.88;100.00;101383.28;4997012;28;20047;-53
2022/11/05 02:54:58;;;;;;;19.48;7.90;;;;;;;13.01;100.00;101381.69;4989990;28;20066;-53
2022/11/05 02:57:27;;;;;;;14.10;6.93;;;;;;;13.01;100.00;101387.06;4989146;28;20031;-51
2022/11/05 03:00:27;;;;;;;20.98;8.13;;;;;;;12.58;100.00;101377.31;4991227;28;20054;-50
2022/11/05 03:02:53;;;;;;;17.80;7.78;;;;;;;12.60;100.00;101376.09;4989886;28;20035;-52
2022/11/05 03:05:28;;;;;;;17.92;7.85;;;;;;;12.61;100.00;101382.28;4991917;28;20049;-51
2022/11/05 03:08:08;;;;;;;15.18;8.82;;;;;;;12.31;100.00;101371.75;4989126;28;20111;-50
2022/11/05 03:10:55;;;;;;;24.15;8.10;;;;;;;12.33;100.00;101372.38;4988771;28;20045;-50
2022/11/05 03:13:33;;;;;;;13.10;7.53;;;;;;;12.24;100.00;101376.25;4990457;28;20046;-51
2022/11/05 03:16:10;;;;;;;18.38;8.70;;;;;;;12.03;100.00;101372.53;4989320;28;20046;-54
2022/11/05 03:18:43;;;;;;;19.55;8.30;;;;;;;12.57;100.00;101372.97;4987544;28;20043;-53
2022/11/05 03:21:15;;;;;;;20.05;9.40;;;;;;;12.59;100.00;101381.66;4985483;28;20035;-53
2022/11/05 03:23:59;;;;;;;25.55;9.57;;;;;;;12.57;100.00;101378.34;4989782;28;20035;-50
2022/11/05 03:26:30;;;;;;;22.55;8.35;;;;;;;12.69;100.00;101378.63;4990389;28;20031;-52
2022/11/05 03:29:05;;;;;;;21.10;9.43;;;;;;;12.23;100.00;101379.94;4989268;28;20098;-49
2022/11/05 03:31:33;;;;;;;18.77;9.80;;;;;;;12.09;100.00;101381.66;4986960;28;20030;-50
2022/11/05 03:34:02;;;;;;;26.33;10.35;;;;;;;11.84;100.00;101382.84;4988473;28;20023;-52
2022/11/05 03:36:39;;;;;;;24.77;10.35;;;;;;;12.72;100.00;101383.59;4984576;28;20042;-52
2022/11/05 03:39:12;;;;;;;24.52;10.88;;;;;;;12.67;100.00;101386.03;4990425;28;20114;-50
2022/11/05 03:41:42;;;;;;;23.77;9.95;;;;;;;12.63;100.00;101388.28;4987861;28;20057;-49
2022/11/05 03:44:11;;;;;;;19.88;9.07;;;;;;;11.87;100.00;101384.28;4990999;28;20074;-51
2022/11/05 03:46:44;;;;;;;24.33;9.82;;;;;;;11.95;100.00;101380.66;4987950;28;20030;-53
2022/11/05 03:49:14;;;;;;;26.25;10.05;;;;;;;12.11;100.00;101379.59;4985948;28;20031;-54
2022/11/05 03:52:00;;;;;;;19.42;10.20;;;;;;;11.39;100.00;101385.63;4984758;28;20053;-53
2022/11/05 03:54:26;;;;;;;20.77;9.02;;;;;;;12.07;100.00;101381.00;4987998;28;20031;-51
2022/11/05 03:57:08;;;;;;;22.52;8.63;;;;;;;11.97;100.00;101387.50;4988870;28;20169;-49
2022/11/05 03:59:43;;;;;;;18.77;10.35;;;;;;;12.28;100.00;101389.03;4988761;28;20035;-49
2022/11/05 04:02:12;;;;;;;16.13;8.75;;;;;;;12.35;100.00;101389.09;4988662;28;20038;-51
2022/11/05 04:04:38;;;;;;;14.75;9.15;;;;;;;12.19;100.00;101385.66;4993417;28;20046;-54
2022/11/05 04:15:17;;;;;;;17.73;8.30;;;;;;;11.91;100.00;101399.00;4992951;28;20031;-51
2022/11/05 04:17:42;;;;;;;15.33;8.40;;;;;;;12.12;100.00;101408.91;4991412;28;20098;-48
2022/11/05 04:25:45;;;;;;;17.02;8.05;;;;;;;11.75;100.00;101402.72;4988761;28;20022;-50
2022/11/05 04:28:12;;;;;;;18.67;8.77;;;;;;;12.00;100.00;101413.13;4992804;28;20058;-51
2022/11/05 04:30:37;;;;;;;16.55;7.90;;;;;;;11.71;100.00;101404.13;4989620;28;20043;-55
2022/11/05 04:33:11;;;;;;;15.37;8.67;;;;;;;11.89;100.00;101403.72;4988803;28;20038;-53
2022/11/05 04:35:40;;;;;;;17.27;7.63;;;;;;;12.20;100.00;101405.28;4989163;28;20066;-53
2022/11/05 04:38:09;;;;;;;19.77;8.45;;;;;;;12.08;100.00;101410.31;4988963;28;20039;-52
2022/11/05 04:40:35;;;;;;;14.20;8.05;;;;;;;11.94;100.00;101412.00;4987271;28;20037;-50
2022/11/05 04:43:01;;;;;;;14.88;8.27;;;;;;;12.07;100.00;101414.03;4992596;28;20032;-49
2022/11/05 04:45:30;;;;;;;12.73;7.78;;;;;;;11.66;100.00;101414.59;4990884;28;20040;-52
2022/11/05 04:47:55;;;;;;;14.88;8.38;;;;;;;11.41;100.00;101415.72;4986739;28;24235;-52
2022/11/05 04:50:21;;;;;;;15.23;8.43;;;;;;;11.64;100.00;101424.66;4987821;28;20039;-49
2022/11/05 04:52:47;;;;;;;17.63;8.73;;;;;;;12.05;100.00;101422.25;4985387;28;20046;-49
2022/11/05 04:55:12;;;;;;;18.57;8.40;;;;;;;12.02;100.00;101429.88;4987513;28;20069;-48
2022/11/05 04:57:38;;;;;;;12.30;8.02;;;;;;;12.35;100.00;101431.22;4988305;28;20031;-51
2022/11/05 05:00:07;;;;;;;13.55;7.78;;;;;;;12.81;100.00;101446.00;4987475;28;20069;-52
2022/11/05 05:02:34;;;;;;;19.38;7.45;;;;;;;12.22;100.00;101442.59;4989465;28;20029;-50
2022/11/05 05:04:59;;;;;;;24.70;7.65;;;;;;;12.61;100.00;101441.31;4988020;28;20034;-50
2022/11/05 05:07:25;;;;;;;14.63;7.17;;;;;;;12.43;100.00;101449.84;4990451;28;20042;-49
2022/11/05 05:09:51;;;;;;;19.48;7.70;;;;;;;12.72;100.00;101450.69;4991933;28;20053;-51
2022/11/05 05:12:16;;;;;;;16.37;7.43;;;;;;;12.52;100.00;101455.91;4987789;28;20038;-51
2022/11/05 05:14:41;;;;;;;18.57;7.47;;;;;;;12.33;100.00;101447.47;4989026;28;20031;-54
2022/11/05 05:17:07;;;;;;;14.38;5.93;;;;;;;12.49;100.00;101449.06;4985928;28;20066;-49
2022/11/05 05:21:37;;;;;;;17.67;8.30;;;;;;;12.42;100.00;101450.88;4986481;28;20069;-48
2022/11/05 05:22:21;;;;;;;17.85;8.55;;;;;;;12.14;100.00;101448.97;4991540;28;20061;-52
2022/11/05 05:24:46;;;;;;;20.80;9.60;;;;;;;11.59;100.00;101452.84;4987520;28;20039;-53
2022/11/05 05:27:12;;;;;;;12.70;7.90;;;;;;;12.45;100.00;101447.78;4987995;28;20071;-52
2022/11/05 05:29:37;;;;;;;13.75;8.23;;;;;;;12.48;100.00;101450.94;4987867;28;20273;-52
2022/11/05 05:32:04;;;;;;;24.37;8.80;;;;;;;13.16;100.00;101451.41;4988722;28;20069;-49
2022/11/05 05:34:29;;;;;;;16.80;8.43;;;;;;;11.67;100.00;101456.44;4986597;28;20039;-49
2022/11/05 05:36:54;;;;;;;16.53;8.63;;;;;;;12.37;100.00;101454.13;4991279;28;20039;-50
2022/11/05 05:39:20;;;;;;;22.80;8.02;;;;;;;11.95;100.00;101450.34;4990105;28;20039;-50
2022/11/05 05:41:46;;;;;;;15.30;8.87;;;;;;;11.68;100.00;101453.56;4990211;28;20027;-52
2022/11/05 05:44:11;;;;;;;15.93;8.40;;;;;;;11.96;100.00;101449.34;4987423;28;20281;-52
2022/11/05 05:46:37;;;;;;;14.68;7.00;;;;;;;11.84;100.00;101457.03;4989135;28;20074;-50
2022/11/05 05:49:02;;;;;;;13.20;6.97;;;;;;;11.40;100.00;101456.91;4986699;28;20069;-52
2022/11/05 05:51:28;;;;;;;21.07;9.73;;;;;;;11.47;100.00;101459.69;4987940;28;20114;-51
2022/11/05 05:53:53;;;;;;;21.73;10.50;;;;;;;11.56;100.00;101453.22;4988556;28;20035;-51
2022/11/05 05:56:19;;;;;;;21.70;9.07;;;;;;;11.48;100.00;101454.16;4988708;28;20035;-47
2022/11/05 05:58:45;;;;;;;22.70;9.52;;;;;;;11.36;100.00;101455.63;4985474;28;20027;-51
2022/11/05 06:01:14;;;;;;;22.92;9.32;;;;;;;11.51;100.00;101457.47;4987347;28;20027;-51
2022/11/05 06:03:40;;;;;;;22.23;10.38;;;;;;;11.69;100.00;101459.75;4994977;28;20030;-49
2022/11/05 06:06:11;;;;;;;20.40;9.50;;;;;;;11.24;100.00;101457.94;4991141;28;20080;-50
2022/11/05 06:08:37;;;;;;;22.45;11.23;;;;;;;11.31;100.00;101456.19;4986681;28;20031;-53
2022/11/05 06:11:04;;;;;;;17.38;9.23;;;;;;;11.24;100.00;101452.59;4985831;28;20175;-49
2022/11/05 06:13:30;;;;;;;34.95;14.32;;;;;;;11.46;100.00;101458.88;4987144;28;20055;-52
2022/11/05 06:16:04;;;;;;;29.45;12.23;;;;;;;11.87;100.00;101451.28;4985048;28;20046;-46
2022/11/05 06:18:31;;;;;;;31.60;12.85;;;;;;;11.46;100.00;101458.88;4987719;28;20046;-48
2022/11/05 06:21:01;;;;;;;24.83;12.70;;;;;;;11.31;100.00;101458.88;4987080;28;20031;-49
2022/11/05 06:23:26;;;;;;;26.98;14.10;;;;;;;11.41;100.00;101463.13;4987175;28;20042;-53
2022/11/05 06:25:51;;;;;;;26.53;14.00;;;;;;;11.40;100.00;101464.13;4991042;28;20039;-50
2022/11/05 06:28:17;;;;;;;26.65;12.50;;;;;;;11.55;100.00;101472.16;4989285;28;20042;-52
2022/11/05 06:30:49;;;;;;;23.05;11.55;;;;;;;11.65;100.00;101470.03;4985783;28;20110;-48
2022/11/05 06:33:15;;;;;;;19.35;11.93;;;;;;;11.76;100.00;101468.69;4984867;28;20034;-51
2022/11/05 06:35:40;;;;;;;23.83;11.73;;;;;;;11.40;100.00;101466.81;4988190;28;20039;-50
2022/11/05 06:38:06;;;;;;;27.88;12.05;;;;;;;11.58;100.00;101459.22;4989317;28;20088;-50
2022/11/05 06:40:31;;;;;;;27.23;12.73;;;;;;;11.05;100.00;101460.13;4986509;28;20062;-47
2022/11/05 06:42:57;;;;;;;20.67;11.87;;;;;;;11.12;100.00;101470.13;4984487;28;20066;-49
2022/11/05 06:45:23;;;;;;;27.77;13.50;;;;;;;11.00;100.00;101462.53;4988028;28;20035;-51
2022/11/05 06:47:54;;;;;;;32.63;14.17;;;;;;;11.03;100.00;101466.72;4988568;28;20040;-48
2022/11/05 06:50:20;;;;;;;28.10;13.38;;;;;;;11.28;100.00;101469.13;4989601;28;20345;-49
2022/11/05 06:52:55;;;;;;;31.67;12.03;;;;;;;11.09;100.00;101470.50;4986904;28;20031;-50
2022/11/05 06:55:21;;;;;;;28.05;13.48;;;;;;;11.47;100.00;101470.41;4990248;28;20035;-51
2022/11/05 06:57:47;;;;;;;28.35;12.70;;;;;;;11.62;100.00;101479.25;4987562;28;20057;-47
2022/11/05 07:00:13;;;;;;;27.90;13.90;;;;;;;11.24;100.00;101481.22;4986153;28;20043;-53
2022/11/05 07:02:39;;;;;;;29.02;13.48;;;;;;;11.51;100.00;101481.59;4987404;28;20038;-50
2022/11/05 07:05:06;;;;;;;27.07;13.37;;;;;;;11.25;100.00;101483.69;4984403;28;20039;-47
2022/11/05 07:07:32;;;;;;;28.35;13.20;;;;;;;11.12;100.00;101488.88;4987624;28;20034;-54
2022/11/05 07:09:57;;;;;;;33.20;14.27;;;;;;;11.32;100.00;101487.31;4989100;28;20043;-53
2022/11/05 07:12:23;;;;;;;26.38;14.23;;;;;;;11.64;100.00;101487.09;4988802;28;20035;-51
2022/11/05 07:14:48;;;;;;;33.70;14.40;;;;;;;11.58;100.00;101496.72;4985459;28;20042;-50
2022/11/05 07:17:17;;;;;;;35.47;15.03;;;;;;;11.64;100.00;101497.81;4993753;28;20031;-50
2022/11/05 07:19:42;;;;;;;28.35;13.82;;;;;;;11.53;100.00;101493.75;4987214;28;20034;-51
2022/11/05 07:22:08;;;;;;;29.95;14.00;;;;;;;11.37;100.00;101496.66;4990195;28;20078;-47
2022/11/05 07:24:33;;;;;;;33.00;14.67;;;;;;;11.87;100.00;101497.69;4990850;28;20041;-50
2022/11/05 07:26:58;;;;;;;31.93;15.23;;;;;;;11.15;100.00;101497.34;4990752;28;20273;-48
2022/11/05 07:29:24;;;;;;;30.65;17.05;;;;;;;11.64;100.00;101497.00;4989634;28;20074;-53
2022/11/05 07:31:50;;;;;;;32.63;15.43;;;;;;;11.87;100.00;101500.38;4989099;28;20047;-51
2022/11/05 07:34:15;;;;;;;26.77;11.50;;;;;;;11.65;100.00;101504.03;4993246;28;20069;-52
2022/11/05 07:36:41;;;;;;;28.90;14.80;;;;;;;11.83;100.00;101507.13;4987913;28;20039;-51
2022/11/05 07:39:06;;;;;;;28.60;13.70;;;;;;;12.48;100.00;101512.63;4992993;28;20158;-50
2022/11/05 07:41:32;;;;;;;27.27;15.07;;;;;;;11.92;100.00;101513.22;4990815;28;20034;-53
2022/11/05 07:43:57;;;;;;;27.90;13.60;;;;;;;11.81;100.00;101511.84;4993079;28;20269;-52
2022/11/05 07:46:22;;;;;;;29.27;14.07;;;;;;;12.09;100.00;101511.19;4989335;28;20043;-47
2022/11/05 07:48:48;;;;;;;30.63;13.43;;;;;;;11.53;100.00;101512.50;4988994;28;20131;-55
2022/11/05 07:51:13;;;;;;;29.90;13.40;;;;;;;11.42;100.00;101513.84;4989931;28;20062;-53
2022/11/05 07:53:39;;;;;;;24.70;13.85;;;;;;;12.05;100.00;101512.59;4989031;28;20039;-52
2022/11/05 07:56:05;;;;;;;26.33;13.93;;;;;;;12.13;100.00;101519.69;4989732;28;20058;-51
2022/11/05 07:58:31;;;;;;;24.13;11.37;;;;;;;12.31;100.00;101521.94;4989657;28;20273;-53
2022/11/05 08:00:56;;;;;;;26.77;12.17;;;;;;;12.68;100.00;101517.31;4990681;28;20268;-50
2022/11/05 08:03:22;;;;;;;24.70;10.63;;;;;;;12.73;100.00;101519.44;4989959;28;20051;-50
2022/11/05 08:05:48;;;;;;;23.00;10.90;;;;;;;13.22;100.00;101516.91;4987373;28;20054;-49
2022/11/05 08:08:16;;;;;;;22.25;10.05;;;;;;;12.42;100.00;101516.06;4987545;28;20041;-51
2022/11/05 08:10:42;;;;;;;21.88;10.27;;;;;;;12.20;100.00;101520.59;4989201;28;20043;-54
2022/11/05 08:13:09;;;;;;;18.27;11.23;;;;;;;12.69;100.00;101516.34;4990198;28;20035;-50
2022/11/05 08:15:35;;;;;;;25.50;11.35;;;;;;;13.23;100.00;101511.38;4990635;28;20026;-52
2022/11/05 08:18:13;;;;;;;20.38;11.48;;;;;;;14.01;100.00;101517.56;4989058;28;20050;-51
2022/11/05 08:20:39;;;;;;;26.87;9.77;;;;;;;14.27;100.00;101515.97;4988817;28;20038;-49
2022/11/05 08:23:05;;;;;;;20.52;9.52;;;;;;;13.70;100.00;101521.56;4989215;28;20268;-50
2022/11/05 08:25:30;;;;;;;19.40;9.33;;;;;;;14.14;100.00;101514.91;4991672;28;20039;-52
2022/11/05 08:28:02;;;;;;;15.35;8.77;;;;;;;14.03;100.00;101512.78;4990725;28;20119;-49
2022/11/05 08:30:28;;;;;;;17.27;9.10;;;;;;;15.52;100.00;101527.16;4988314;28;20058;-49
2022/11/05 08:33:03;;;;;;;15.37;8.40;;;;;;;15.59;100.00;101522.59;4991037;28;20310;-52
2022/11/05 08:35:29;;;;;;;18.30;7.83;;;;;;;16.10;100.00;101523.63;5002353;28;20348;-52
2022/11/05 08:38:01;;;;;;;17.80;7.45;;;;;;;16.68;100.00;101519.13;4992372;28;20273;-49
2022/11/05 08:40:29;;;;;;;13.70;6.87;;;;;;;17.05;100.00;101521.94;4991868;28;20046;-52
2022/11/05 08:42:57;;;;;;;14.23;6.07;;;;;;;17.05;100.00;101532.75;4986022;28;20261;-52
2022/11/05 08:45:23;;;;;;;12.60;7.17;;;;;;;16.44;100.00;101540.47;4989461;28;20277;-50
2022/11/05 08:47:49;;;;;;;11.90;5.97;;;;;;;16.91;100.00;101533.91;4987348;28;20345;-50
2022/11/05 08:50:16;;;;;;;11.13;5.13;;;;;;;17.30;100.00;101539.19;4989459;28;20285;-51
2022/11/05 08:52:41;;;;;;;12.60;6.03;;;;;;;17.44;100.00;101535.31;4990535;28;20288;-53
2022/11/05 08:55:07;;;;;;;10.27;5.97;;;;;;;18.16;100.00;101543.84;4990866;28;20037;-51
2022/11/05 08:57:32;;;;;;;10.55;5.63;;;;;;;18.89;100.00;101539.19;4990181;28;20073;-51
2022/11/05 08:59:58;;;;;;;11.40;5.45;;;;;;;19.04;100.00;101546.06;4989718;28;20035;-53
2022/11/05 09:02:24;;;;;;;20.85;6.00;;;;;;;18.78;100.00;101548.09;4991643;28;20038;-54
2022/11/05 09:04:49;;;;;;;10.45;5.60;;;;;;;19.03;100.00;101536.25;4989640;28;20098;-50
2022/11/05 09:07:15;;;;;;;11.98;5.75;;;;;;;18.38;100.00;101532.50;4987788;28;20035;-53
2022/11/05 09:09:40;;;;;;;9.95;5.35;;;;;;;20.03;100.00;101544.38;4987636;28;20039;-53
2022/11/05 09:12:06;;;;;;;11.20;5.07;;;;;;;19.31;100.00;101540.16;4989360;28;20069;-53
2022/11/05 09:14:31;;;;;;;12.45;4.88;;;;;;;19.30;100.00;101544.75;4991967;28;20055;-54
2022/11/05 09:16:57;;;;;;;9.27;5.20;;;;;;;18.89;100.00;101539.19;4992280;28;20062;-51
2022/11/05 09:19:22;;;;;;;14.10;5.47;;;;;;;19.65;100.00;101542.22;4987051;28;20041;-48
2022/11/05 09:21:48;;;;;;;6.32;4.38;;;;;;;20.61;100.00;101552.47;4990362;28;20315;-50
2022/11/05 09:24:13;;;;;;;10.02;4.70;;;;;;;20.18;98.35;101552.00;4987679;28;20069;-48
2022/11/05 09:26:39;;;;;;;13.60;4.50;;;;;;;20.26;100.00;101539.06;4990927;28;20120;-50
2022/11/05 09:29:04;;;;;;;9.07;4.60;;;;;;;21.63;94.67;101548.81;4987322;28;20103;-52
2022/11/05 09:31:30;;;;;;;15.32;4.55;;;;;;;21.14;90.97;101543.25;4985804;28;20038;-53
2022/11/05 09:33:55;;;;;;;13.48;4.95;;;;;;;20.65;94.36;101558.25;4986613;28;20039;-53
2022/11/05 09:36:21;;;;;;;10.70;4.80;;;;;;;21.07;94.89;101546.16;4989361;28;20098;-50
2022/11/05 09:38:46;;;;;;;7.70;4.65;;;;;;;21.35;92.62;101550.63;4986259;28;20050;-50
2022/11/05 09:41:35;;;;;;;9.00;4.50;;;;;;;21.16;89.96;101558.25;4990455;28;20030;-48
2022/11/05 09:44:12;;;;;;;9.47;4.30;;;;;;;21.44;89.81;101553.75;4986889;28;20045;-53
2022/11/05 09:46:51;;;;;;;11.02;4.88;;;;;;;22.54;81.95;101556.66;4989710;28;20047;-51
2022/11/05 09:49:26;;;;;;;10.63;4.27;;;;;;;21.98;82.49;101552.25;4987845;28;20065;-52
2022/11/05 09:51:56;;;;;;;12.73;4.45;;;;;;;21.98;82.50;101559.63;4988347;28;20045;-54
2022/11/05 09:54:28;;;;;;;9.87;4.27;;;;;;;22.77;80.03;101557.41;4989755;28;20045;-54
2022/11/05 09:56:54;;;;;;;16.97;4.67;;;;;;;22.83;75.60;101561.81;4986739;28;20031;-53
2022/11/05 09:59:32;;;;;;;9.47;4.23;;;;;;;22.53;74.66;101567.81;4987839;28;20031;-50
2022/11/05 10:02:10;;;;;;;9.73;4.57;;;;;;;22.52;75.84;101569.72;4986908;28;20027;-54
2022/11/05 10:04:37;;;;;;;10.83;4.17;;;;;;;22.40;76.98;101572.59;4987794;28;20042;-52
2022/11/05 10:07:06;;;;;;;6.37;3.67;;;;;;;22.59;74.60;101569.50;4986454;28;20039;-53
2022/11/05 10:09:39;;;;;;;10.10;4.33;;;;;;;23.29;70.37;101579.59;4986843;28;20039;-51
2022/11/05 10:12:40;;;;;;;11.10;4.30;;;;;;;24.06;67.25;101592.81;4988496;28;20051;-56
2022/11/05 10:15:39;;;;;;;10.53;4.20;;;;;;;23.03;68.15;101584.88;4985533;28;20043;-53
2022/11/05 10:18:15;;;;;;;12.77;4.10;;;;;;;23.58;67.86;101596.41;4978383;28;20054;-52
2022/11/05 10:20:41;;;;;;;10.30;4.20;;;;;;;22.18;71.81;101583.53;4983731;28;20054;-52
2022/11/05 10:23:11;;;;;;;10.47;3.90;;;;;;;20.77;77.42;101605.22;4982600;28;20031;-52
2022/11/05 10:26:03;;;;;;;10.77;4.13;;;;;;;19.61;87.86;101586.13;4984677;28;20031;-50
2022/11/05 10:28:31;;;;;;;9.97;4.73;;;;;;;19.91;92.36;101592.44;4973076;28;20043;-54
2022/11/05 10:31:00;;;;;;;10.73;4.30;;;;;;;19.22;97.10;101584.94;4984228;28;20027;-51
2022/11/05 10:33:43;;;;;;;11.13;4.60;;;;;;;18.68;100.00;101583.09;4986825;28;20030;-49
2022/11/05 10:36:13;;;;;;;10.93;4.30;;;;;;;18.53;100.00;101588.94;4987396;28;20038;-53
2022/11/05 10:38:39;;;;;;;15.33;4.67;;;;;;;17.97;100.00;101592.53;4989224;28;20039;-50
2022/11/05 10:41:40;;;;;;;13.40;4.70;;;;;;;18.69;100.00;101585.56;4989114;28;20039;-51
2022/11/05 10:44:23;;;;;;;9.97;4.57;;;;;;;18.41;100.00;101576.16;4986959;28;20069;-49
2022/11/05 10:47:00;;;;;;;11.97;4.93;;;;;;;17.70;100.00;101589.31;4990065;28;20149;-50
2022/11/05 10:49:58;;;;;;;9.20;4.23;;;;;;;17.77;100.00;101582.78;4983307;28;20280;-49
2022/11/05 10:52:25;;;;;;;;;;;;;;;17.56;100.00;101573.25;4990125;28;20314;-51
2022/11/05 10:54:56;;;;;;;8.98;4.82;;;;;;;19.80;100.00;101585.94;4987614;28;19918;-51
2022/11/05 10:57:29;;;;;;;9.77;5.10;;;;;;;19.52;100.00;101587.53;4993176;28;20046;-49
2022/11/05 11:00:22;;;;;;;14.23;4.43;;;;;;;19.48;100.00;101578.22;4991676;28;20273;-51
2022/11/05 11:02:57;;;;;;;11.27;5.53;;;;;;;18.52;100.00;101576.44;4988741;28;20371;-50
2022/11/05 11:05:34;;;;;;;12.10;5.23;;;;;;;18.18;100.00;101575.00;4991352;28;20272;-50
2022/11/05 11:08:02;;;;;;;;;;;;;;;17.90;100.00;101572.88;4990656;28;20281;-52
2022/11/05 11:10:33;;;;;;;12.43;4.70;;;;;;;17.78;100.00;101576.31;4993276;28;19914;-50
2022/11/05 11:12:59;;;;;;;16.10;5.30;;;;;;;18.59;100.00;101574.47;4991086;28;20292;-52
2022/11/05 11:15:34;;;;;;;15.65;5.90;;;;;;;17.78;100.00;101573.59;4988826;28;20276;-52
2022/11/05 11:18:24;;;;;;;12.60;4.63;;;;;;;17.20;100.00;101577.53;4987298;28;20089;-52
2022/11/05 11:20:49;;;;;;;10.10;4.93;;;;;;;18.16;100.00;101569.00;4989270;28;20324;-50
2022/11/05 11:23:16;;;;;;;12.48;5.95;;;;;;;17.53;100.00;101565.59;4989382;28;20261;-51
2022/11/05 11:25:49;;;;;;;9.40;5.17;;;;;;;17.30;100.00;101566.22;4988779;28;20070;-51
2022/11/05 11:28:22;;;;;;;8.70;4.57;;;;;;;17.13;100.00;101566.78;4988953;28;20391;-52
2022/11/05 11:30:51;;;;;;;13.97;4.47;;;;;;;17.28;100.00;101563.72;4988672;28;20269;-51
2022/11/05 11:33:22;;;;;;;10.63;4.63;;;;;;;17.49;100.00;101561.66;4987758;28;20368;-47
2022/11/05 11:35:48;;;;;;;16.70;4.90;;;;;;;17.69;100.00;101561.44;4990706;28;20269;-54
2022/11/05 11:38:15;;;;;;;7.72;4.68;;;;;;;18.54;100.00;101572.44;4992504;28;20279;-50
2022/11/05 11:40:41;;;;;;;7.93;4.43;;;;;;;18.76;100.00;101574.59;4987459;28;20098;-54
2022/11/05 11:43:22;;;;;;;13.00;3.95;;;;;;;18.43;100.00;101571.34;4990211;28;20288;-49
2022/11/05 11:45:52;;;;;;;10.97;4.37;;;;;;;18.45;100.00;101588.22;4991386;28;20034;-53
2022/11/05 11:48:23;;;;;;;8.67;3.90;;;;;;;18.08;100.00;101571.19;4993303;28;20035;-47
2022/11/05 11:50:49;;;;;;;9.57;3.83;;;;;;;20.75;100.00;101580.16;4992973;28;20288;-53
2022/11/05 11:53:20;;;;;;;9.18;3.95;;;;;;;21.11;93.51;101582.66;4993193;28;20291;-50
2022/11/05 11:55:55;;;;;;;9.33;4.10;;;;;;;17.76;100.00;101572.16;4991761;28;20039;-51
2022/11/05 11:58:22;;;;;;;11.17;4.97;;;;;;;19.18;100.00;101568.34;4993282;28;20110;-53
2022/11/05 12:00:58;;;;;;;12.07;4.57;;;;;;;19.35;100.00;101563.03;4988222;28;20061;-51
2022/11/05 12:03:34;;;;;;;8.93;4.20;;;;;;;19.46;100.00;101558.66;4987454;28;20035;-52
2022/11/05 12:06:00;;;;;;;11.43;4.28;;;;;;;18.88;100.00;101551.09;4991070;28;20034;-49